sensor_id;sensor_type;location;lat;lon;timestamp;temperature;humidity
41926;DHT22;27615;51.826;5.692;2022-10-12T00:01:21;8.30;90.30
41926;DHT22;27615;51.826;5.692;2022-10-12T00:03:47;8.30;90.60
41926;DHT22;27615;51.826;5.692;2022-10-12T00:06:18;8.20;90.90
41926;DHT22;27615;51.826;5.692;2022-10-12T00:08:45;8.20;91.30
41926;DHT22;27615;51.826;5.692;2022-10-12T00:11:14;8.00;91.70
41926;DHT22;27615;51.826;5.692;2022-10-12T00:13:40;8.00;91.90
41926;DHT22;27615;51.826;5.692;2022-10-12T00:16:07;8.00;92.20
41926;DHT22;27615;51.826;5.692;2022-10-12T00:18:33;8.00;91.90
41926;DHT22;27615;51.826;5.692;2022-10-12T00:21:04;8.10;91.90
41926;DHT22;27615;51.826;5.692;2022-10-12T00:23:30;8.10;91.90
41926;DHT22;27615;51.826;5.692;2022-10-12T00:25:59;8.10;91.90
41926;DHT22;27615;51.826;5.692;2022-10-12T00:28:25;8.10;92.00
41926;DHT22;27615;51.826;5.692;2022-10-12T00:30:50;8.00;92.00
41926;DHT22;27615;51.826;5.692;2022-10-12T00:33:16;8.00;92.00
41926;DHT22;27615;51.826;5.692;2022-10-12T00:35:41;8.00;92.10
41926;DHT22;27615;51.826;5.692;2022-10-12T00:38:07;8.00;92.10
41926;DHT22;27615;51.826;5.692;2022-10-12T00:40:32;8.00;92.20
41926;DHT22;27615;51.826;5.692;2022-10-12T00:42:58;8.00;92.20
41926;DHT22;27615;51.826;5.692;2022-10-12T00:45:25;8.00;92.30
41926;DHT22;27615;51.826;5.692;2022-10-12T00:47:54;8.00;92.30
41926;DHT22;27615;51.826;5.692;2022-10-12T00:50:25;8.00;92.40
41926;DHT22;27615;51.826;5.692;2022-10-12T00:52:57;7.90;92.50
41926;DHT22;27615;51.826;5.692;2022-10-12T00:55:26;7.90;92.50
41926;DHT22;27615;51.826;5.692;2022-10-12T00:57:54;7.90;92.60
41926;DHT22;27615;51.826;5.692;2022-10-12T01:00:21;7.90;92.70
41926;DHT22;27615;51.826;5.692;2022-10-12T01:02:48;7.90;92.70
41926;DHT22;27615;51.826;5.692;2022-10-12T01:05:14;7.90;92.80
41926;DHT22;27615;51.826;5.692;2022-10-12T01:07:41;7.90;92.80
41926;DHT22;27615;51.826;5.692;2022-10-12T01:10:07;7.90;92.90
41926;DHT22;27615;51.826;5.692;2022-10-12T01:12:33;8.00;92.90
41926;DHT22;27615;51.826;5.692;2022-10-12T01:15:00;7.90;92.90
41926;DHT22;27615;51.826;5.692;2022-10-12T01:17:47;7.90;93.00
41926;DHT22;27615;51.826;5.692;2022-10-12T01:20:35;8.00;93.10
41926;DHT22;27615;51.826;5.692;2022-10-12T01:31:07;8.00;93.50
41926;DHT22;27615;51.826;5.692;2022-10-12T01:33:43;7.90;93.50
41926;DHT22;27615;51.826;5.692;2022-10-12T01:36:18;8.00;93.60
41926;DHT22;27615;51.826;5.692;2022-10-12T01:38:52;7.90;93.60
41926;DHT22;27615;51.826;5.692;2022-10-12T01:41:33;8.00;93.80
41926;DHT22;27615;51.826;5.692;2022-10-12T01:44:00;8.00;93.80
41926;DHT22;27615;51.826;5.692;2022-10-12T01:48:54;7.90;93.90
41926;DHT22;27615;51.826;5.692;2022-10-12T01:51:51;7.90;94.00
41926;DHT22;27615;51.826;5.692;2022-10-12T01:54:33;8.00;94.10
41926;DHT22;27615;51.826;5.692;2022-10-12T01:59:48;7.90;94.20
41926;DHT22;27615;51.826;5.692;2022-10-12T02:05:21;7.90;94.30
41926;DHT22;27615;51.826;5.692;2022-10-12T02:08:00;7.90;94.40
41926;DHT22;27615;51.826;5.692;2022-10-12T02:10:32;7.90;94.50
41926;DHT22;27615;51.826;5.692;2022-10-12T02:13:03;7.80;94.50
41926;DHT22;27615;51.826;5.692;2022-10-12T02:15:31;7.80;94.60
41926;DHT22;27615;51.826;5.692;2022-10-12T02:17:57;7.80;94.70
41926;DHT22;27615;51.826;5.692;2022-10-12T02:20:27;7.80;94.70
41926;DHT22;27615;51.826;5.692;2022-10-12T02:22:53;7.70;94.80
41926;DHT22;27615;51.826;5.692;2022-10-12T02:25:21;7.70;94.90
41926;DHT22;27615;51.826;5.692;2022-10-12T02:27:54;7.70;95.00
41926;DHT22;27615;51.826;5.692;2022-10-12T02:30:22;7.60;95.20
41926;DHT22;27615;51.826;5.692;2022-10-12T02:33:13;7.60;95.30
41926;DHT22;27615;51.826;5.692;2022-10-12T02:35:44;7.60;95.40
41926;DHT22;27615;51.826;5.692;2022-10-12T02:38:19;7.50;95.70
41926;DHT22;27615;51.826;5.692;2022-10-12T02:40:52;7.50;95.80
41926;DHT22;27615;51.826;5.692;2022-10-12T02:45:48;7.50;95.90
41926;DHT22;27615;51.826;5.692;2022-10-12T02:48:18;7.50;95.90
41926;DHT22;27615;51.826;5.692;2022-10-12T02:50:45;7.60;95.90
41926;DHT22;27615;51.826;5.692;2022-10-12T02:53:12;7.60;95.90
41926;DHT22;27615;51.826;5.692;2022-10-12T02:55:47;7.60;95.90
41926;DHT22;27615;51.826;5.692;2022-10-12T02:58:13;7.60;96.00
41926;DHT22;27615;51.826;5.692;2022-10-12T03:00:38;7.60;96.00
41926;DHT22;27615;51.826;5.692;2022-10-12T03:03:04;7.60;96.00
41926;DHT22;27615;51.826;5.692;2022-10-12T03:05:29;7.60;96.00
41926;DHT22;27615;51.826;5.692;2022-10-12T03:07:55;7.60;96.10
41926;DHT22;27615;51.826;5.692;2022-10-12T03:10:20;7.50;96.10
41926;DHT22;27615;51.826;5.692;2022-10-12T03:12:46;7.50;96.20
41926;DHT22;27615;51.826;5.692;2022-10-12T03:15:11;7.50;96.20
41926;DHT22;27615;51.826;5.692;2022-10-12T03:17:37;7.50;96.20
41926;DHT22;27615;51.826;5.692;2022-10-12T03:20:03;7.50;96.30
41926;DHT22;27615;51.826;5.692;2022-10-12T03:22:28;7.50;96.30
41926;DHT22;27615;51.826;5.692;2022-10-12T03:24:54;7.50;96.30
41926;DHT22;27615;51.826;5.692;2022-10-12T03:27:19;7.50;96.40
41926;DHT22;27615;51.826;5.692;2022-10-12T03:29:45;7.50;96.40
41926;DHT22;27615;51.826;5.692;2022-10-12T03:32:10;7.40;96.70
41926;DHT22;27615;51.826;5.692;2022-10-12T03:34:36;7.30;96.90
41926;DHT22;27615;51.826;5.692;2022-10-12T03:37:01;7.30;97.00
41926;DHT22;27615;51.826;5.692;2022-10-12T03:39:27;7.30;97.20
41926;DHT22;27615;51.826;5.692;2022-10-12T03:41:52;7.30;97.20
41926;DHT22;27615;51.826;5.692;2022-10-12T03:44:18;7.30;97.40
41926;DHT22;27615;51.826;5.692;2022-10-12T03:46:43;7.20;97.20
41926;DHT22;27615;51.826;5.692;2022-10-12T03:49:09;7.30;97.20
41926;DHT22;27615;51.826;5.692;2022-10-12T03:51:34;7.20;97.20
41926;DHT22;27615;51.826;5.692;2022-10-12T03:54:00;7.20;97.20
41926;DHT22;27615;51.826;5.692;2022-10-12T03:56:25;7.20;97.20
41926;DHT22;27615;51.826;5.692;2022-10-12T03:58:51;7.20;97.30
41926;DHT22;27615;51.826;5.692;2022-10-12T04:01:16;7.20;97.20
41926;DHT22;27615;51.826;5.692;2022-10-12T04:03:42;7.10;97.30
41926;DHT22;27615;51.826;5.692;2022-10-12T04:06:07;7.10;97.30
41926;DHT22;27615;51.826;5.692;2022-10-12T04:08:33;7.10;97.30
41926;DHT22;27615;51.826;5.692;2022-10-12T04:10:58;7.10;97.30
41926;DHT22;27615;51.826;5.692;2022-10-12T04:13:24;7.10;97.30
41926;DHT22;27615;51.826;5.692;2022-10-12T04:15:49;7.10;97.60
41926;DHT22;27615;51.826;5.692;2022-10-12T04:18:15;7.10;97.40
41926;DHT22;27615;51.826;5.692;2022-10-12T04:20:40;7.10;97.40
41926;DHT22;27615;51.826;5.692;2022-10-12T04:23:06;7.00;97.40
41926;DHT22;27615;51.826;5.692;2022-10-12T04:25:32;7.00;97.50
41926;DHT22;27615;51.826;5.692;2022-10-12T04:27:58;6.90;97.50
41926;DHT22;27615;51.826;5.692;2022-10-12T04:30:23;6.80;97.60
41926;DHT22;27615;51.826;5.692;2022-10-12T04:32:49;6.70;97.80
41926;DHT22;27615;51.826;5.692;2022-10-12T04:35:16;6.70;98.00
41926;DHT22;27615;51.826;5.692;2022-10-12T04:37:42;6.60;98.00
41926;DHT22;27615;51.826;5.692;2022-10-12T04:40:08;6.60;98.10
41926;DHT22;27615;51.826;5.692;2022-10-12T04:42:33;6.60;98.10
41926;DHT22;27615;51.826;5.692;2022-10-12T04:44:59;6.60;98.10
41926;DHT22;27615;51.826;5.692;2022-10-12T04:47:24;6.60;98.10
41926;DHT22;27615;51.826;5.692;2022-10-12T04:49:50;6.50;98.00
41926;DHT22;27615;51.826;5.692;2022-10-12T04:52:15;6.50;98.00
41926;DHT22;27615;51.826;5.692;2022-10-12T04:54:41;6.60;98.00
41926;DHT22;27615;51.826;5.692;2022-10-12T04:57:06;6.50;97.90
41926;DHT22;27615;51.826;5.692;2022-10-12T04:59:32;6.50;97.90
41926;DHT22;27615;51.826;5.692;2022-10-12T05:01:57;6.50;97.90
41926;DHT22;27615;51.826;5.692;2022-10-12T05:04:23;6.50;97.90
41926;DHT22;27615;51.826;5.692;2022-10-12T05:06:48;6.50;97.90
41926;DHT22;27615;51.826;5.692;2022-10-12T05:09:14;6.50;97.80
41926;DHT22;27615;51.826;5.692;2022-10-12T05:11:39;6.50;97.80
41926;DHT22;27615;51.826;5.692;2022-10-12T05:14:05;6.50;97.80
41926;DHT22;27615;51.826;5.692;2022-10-12T05:16:30;6.50;97.90
41926;DHT22;27615;51.826;5.692;2022-10-12T05:18:56;6.50;97.90
41926;DHT22;27615;51.826;5.692;2022-10-12T05:21:21;6.40;97.80
41926;DHT22;27615;51.826;5.692;2022-10-12T05:23:50;6.40;97.80
41926;DHT22;27615;51.826;5.692;2022-10-12T05:26:17;6.40;97.80
41926;DHT22;27615;51.826;5.692;2022-10-12T05:28:42;6.30;97.80
41926;DHT22;27615;51.826;5.692;2022-10-12T05:31:08;6.30;97.90
41926;DHT22;27615;51.826;5.692;2022-10-12T05:33:33;6.30;97.90
41926;DHT22;27615;51.826;5.692;2022-10-12T05:35:59;6.30;97.90
41926;DHT22;27615;51.826;5.692;2022-10-12T05:38:24;6.30;97.90
41926;DHT22;27615;51.826;5.692;2022-10-12T05:40:50;6.30;97.90
41926;DHT22;27615;51.826;5.692;2022-10-12T05:43:15;6.30;97.90
41926;DHT22;27615;51.826;5.692;2022-10-12T05:45:42;6.30;97.90
41926;DHT22;27615;51.826;5.692;2022-10-12T05:48:08;6.30;97.90
41926;DHT22;27615;51.826;5.692;2022-10-12T05:50:33;6.30;97.90
41926;DHT22;27615;51.826;5.692;2022-10-12T05:52:59;6.30;97.90
41926;DHT22;27615;51.826;5.692;2022-10-12T05:55:24;6.20;97.90
41926;DHT22;27615;51.826;5.692;2022-10-12T05:57:50;6.20;97.90
41926;DHT22;27615;51.826;5.692;2022-10-12T06:00:16;6.30;97.90
41926;DHT22;27615;51.826;5.692;2022-10-12T06:02:41;6.20;97.80
41926;DHT22;27615;51.826;5.692;2022-10-12T06:05:07;6.20;97.80
41926;DHT22;27615;51.826;5.692;2022-10-12T06:07:33;6.30;97.90
41926;DHT22;27615;51.826;5.692;2022-10-12T06:09:58;6.30;97.90
41926;DHT22;27615;51.826;5.692;2022-10-12T06:12:24;6.20;97.90
41926;DHT22;27615;51.826;5.692;2022-10-12T06:14:51;6.20;97.90
41926;DHT22;27615;51.826;5.692;2022-10-12T06:17:16;6.30;97.90
41926;DHT22;27615;51.826;5.692;2022-10-12T06:19:42;6.30;97.90
41926;DHT22;27615;51.826;5.692;2022-10-12T06:22:08;6.30;97.90
41926;DHT22;27615;51.826;5.692;2022-10-12T06:24:33;6.30;97.90
41926;DHT22;27615;51.826;5.692;2022-10-12T06:26:59;6.30;97.90
41926;DHT22;27615;51.826;5.692;2022-10-12T06:29:24;6.40;97.90
41926;DHT22;27615;51.826;5.692;2022-10-12T06:31:50;6.40;97.90
41926;DHT22;27615;51.826;5.692;2022-10-12T06:34:16;6.40;97.90
41926;DHT22;27615;51.826;5.692;2022-10-12T06:36:41;6.40;97.90
41926;DHT22;27615;51.826;5.692;2022-10-12T06:39:08;6.50;97.90
41926;DHT22;27615;51.826;5.692;2022-10-12T06:41:34;6.50;97.90
41926;DHT22;27615;51.826;5.692;2022-10-12T06:43:59;6.60;97.90
41926;DHT22;27615;51.826;5.692;2022-10-12T06:46:25;6.60;97.90
41926;DHT22;27615;51.826;5.692;2022-10-12T06:48:50;6.60;97.90
41926;DHT22;27615;51.826;5.692;2022-10-12T06:51:16;6.70;97.90
41926;DHT22;27615;51.826;5.692;2022-10-12T06:53:41;6.80;97.90
41926;DHT22;27615;51.826;5.692;2022-10-12T06:56:08;6.80;97.90
41926;DHT22;27615;51.826;5.692;2022-10-12T06:58:34;6.80;97.80
41926;DHT22;27615;51.826;5.692;2022-10-12T07:01:03;6.90;97.80
41926;DHT22;27615;51.826;5.692;2022-10-12T07:03:30;6.90;97.90
41926;DHT22;27615;51.826;5.692;2022-10-12T07:06:07;6.90;97.80
41926;DHT22;27615;51.826;5.692;2022-10-12T07:08:33;7.00;97.90
41926;DHT22;27615;51.826;5.692;2022-10-12T07:11:03;7.00;97.90
41926;DHT22;27615;51.826;5.692;2022-10-12T07:13:30;7.10;97.80
41926;DHT22;27615;51.826;5.692;2022-10-12T07:15:55;7.20;97.90
41926;DHT22;27615;51.826;5.692;2022-10-12T07:18:21;7.20;97.80
41926;DHT22;27615;51.826;5.692;2022-10-12T07:20:46;7.30;97.90
41926;DHT22;27615;51.826;5.692;2022-10-12T07:23:12;7.30;97.80
41926;DHT22;27615;51.826;5.692;2022-10-12T07:25:37;7.40;97.90
41926;DHT22;27615;51.826;5.692;2022-10-12T07:28:03;7.40;98.00
41926;DHT22;27615;51.826;5.692;2022-10-12T07:30:30;7.40;98.40
41926;DHT22;27615;51.826;5.692;2022-10-12T07:32:56;7.40;99.10
41926;DHT22;27615;51.826;5.692;2022-10-12T07:35:21;7.40;99.50
41926;DHT22;27615;51.826;5.692;2022-10-12T07:37:48;7.30;99.90
41926;DHT22;27615;51.826;5.692;2022-10-12T07:40:13;7.40;99.90
41926;DHT22;27615;51.826;5.692;2022-10-12T07:42:39;7.40;99.90
41926;DHT22;27615;51.826;5.692;2022-10-12T07:45:05;7.40;99.90
41926;DHT22;27615;51.826;5.692;2022-10-12T07:47:31;7.50;99.90
41926;DHT22;27615;51.826;5.692;2022-10-12T07:49:57;7.40;99.90
41926;DHT22;27615;51.826;5.692;2022-10-12T07:52:22;7.50;99.90
41926;DHT22;27615;51.826;5.692;2022-10-12T07:54:48;7.60;99.90
41926;DHT22;27615;51.826;5.692;2022-10-12T07:57:13;7.60;99.90
41926;DHT22;27615;51.826;5.692;2022-10-12T07:59:39;7.70;99.90
41926;DHT22;27615;51.826;5.692;2022-10-12T08:02:04;7.70;99.90
41926;DHT22;27615;51.826;5.692;2022-10-12T08:04:30;7.80;99.90
41926;DHT22;27615;51.826;5.692;2022-10-12T08:06:56;7.80;99.90
41926;DHT22;27615;51.826;5.692;2022-10-12T08:09:22;7.80;99.90
41926;DHT22;27615;51.826;5.692;2022-10-12T08:11:48;7.90;99.90
41926;DHT22;27615;51.826;5.692;2022-10-12T08:14:14;7.90;99.90
41926;DHT22;27615;51.826;5.692;2022-10-12T08:16:41;8.00;99.90
41926;DHT22;27615;51.826;5.692;2022-10-12T08:19:07;8.10;99.90
41926;DHT22;27615;51.826;5.692;2022-10-12T08:21:32;8.20;99.90
41926;DHT22;27615;51.826;5.692;2022-10-12T08:23:58;8.20;99.90
41926;DHT22;27615;51.826;5.692;2022-10-12T08:26:24;8.30;99.90
41926;DHT22;27615;51.826;5.692;2022-10-12T08:28:49;8.30;99.90
41926;DHT22;27615;51.826;5.692;2022-10-12T08:31:15;8.40;99.90
41926;DHT22;27615;51.826;5.692;2022-10-12T08:33:42;8.40;99.90
41926;DHT22;27615;51.826;5.692;2022-10-12T08:36:09;8.50;99.90
41926;DHT22;27615;51.826;5.692;2022-10-12T08:38:35;8.60;99.90
41926;DHT22;27615;51.826;5.692;2022-10-12T08:44:19;8.80;99.90
41926;DHT22;27615;51.826;5.692;2022-10-12T08:46:48;9.00;99.90
41926;DHT22;27615;51.826;5.692;2022-10-12T08:49:20;9.10;99.90
41926;DHT22;27615;51.826;5.692;2022-10-12T08:51:52;9.10;99.90
41926;DHT22;27615;51.826;5.692;2022-10-12T08:54:21;9.20;99.90
41926;DHT22;27615;51.826;5.692;2022-10-12T08:56:47;9.30;99.90
41926;DHT22;27615;51.826;5.692;2022-10-12T08:59:16;9.40;99.90
41926;DHT22;27615;51.826;5.692;2022-10-12T09:04:57;9.60;99.90
41926;DHT22;27615;51.826;5.692;2022-10-12T09:07:33;9.80;99.90
41926;DHT22;27615;51.826;5.692;2022-10-12T09:15:29;10.10;99.90
41926;DHT22;27615;51.826;5.692;2022-10-12T09:17:58;10.20;99.90
41926;DHT22;27615;51.826;5.692;2022-10-12T09:20:33;10.30;99.90
41926;DHT22;27615;51.826;5.692;2022-10-12T09:23:23;10.50;99.90
41926;DHT22;27615;51.826;5.692;2022-10-12T09:25:51;10.60;99.90
41926;DHT22;27615;51.826;5.692;2022-10-12T09:28:24;10.70;99.90
41926;DHT22;27615;51.826;5.692;2022-10-12T09:31:12;10.80;99.90
41926;DHT22;27615;51.826;5.692;2022-10-12T09:33:46;10.90;99.90
41926;DHT22;27615;51.826;5.692;2022-10-12T09:36:18;11.00;99.90
41926;DHT22;27615;51.826;5.692;2022-10-12T09:38:44;11.10;99.70
41926;DHT22;27615;51.826;5.692;2022-10-12T09:41:26;11.20;99.50
41926;DHT22;27615;51.826;5.692;2022-10-12T09:43:56;11.50;99.00
41926;DHT22;27615;51.826;5.692;2022-10-12T09:46:40;11.70;98.60
41926;DHT22;27615;51.826;5.692;2022-10-12T09:49:06;12.00;98.40
41926;DHT22;27615;51.826;5.692;2022-10-12T09:51:32;12.20;97.50
41926;DHT22;27615;51.826;5.692;2022-10-12T09:54:00;12.40;96.80
41926;DHT22;27615;51.826;5.692;2022-10-12T09:56:40;12.80;96.70
41926;DHT22;27615;51.826;5.692;2022-10-12T09:59:22;13.10;95.60
41926;DHT22;27615;51.826;5.692;2022-10-12T10:04:39;13.70;93.70
41926;DHT22;27615;51.826;5.692;2022-10-12T10:07:29;14.00;92.80
41926;DHT22;27615;51.826;5.692;2022-10-12T10:12:53;15.20;91.70
41926;DHT22;27615;51.826;5.692;2022-10-12T10:15:31;17.30;87.50
41926;DHT22;27615;51.826;5.692;2022-10-12T10:17:59;19.30;75.60
41926;DHT22;27615;51.826;5.692;2022-10-12T10:20:30;19.70;70.30
41926;DHT22;27615;51.826;5.692;2022-10-12T10:22:58;19.40;68.30
41926;DHT22;27615;51.826;5.692;2022-10-12T10:25:24;19.50;69.10
41926;DHT22;27615;51.826;5.692;2022-10-12T10:28:09;20.60;68.20
41926;DHT22;27615;51.826;5.692;2022-10-12T10:30:35;22.00;63.70
41926;DHT22;27615;51.826;5.692;2022-10-12T10:33:16;22.80;58.00
41926;DHT22;27615;51.826;5.692;2022-10-12T10:35:55;24.30;55.90
41926;DHT22;27615;51.826;5.692;2022-10-12T10:38:21;25.10;52.00
41926;DHT22;27615;51.826;5.692;2022-10-12T10:40:51;24.80;50.60
41926;DHT22;27615;51.826;5.692;2022-10-12T10:43:23;25.80;50.40
41926;DHT22;27615;51.826;5.692;2022-10-12T10:45:51;27.00;47.50
41926;DHT22;27615;51.826;5.692;2022-10-12T10:48:20;28.20;45.90
41926;DHT22;27615;51.826;5.692;2022-10-12T10:50:53;29.90;44.50
41926;DHT22;27615;51.826;5.692;2022-10-12T10:53:23;31.90;42.50
41926;DHT22;27615;51.826;5.692;2022-10-12T10:58:58;32.30;38.30
41926;DHT22;27615;51.826;5.692;2022-10-12T11:01:36;33.70;39.10
41926;DHT22;27615;51.826;5.692;2022-10-12T11:04:12;35.80;37.70
41926;DHT22;27615;51.826;5.692;2022-10-12T11:06:39;37.30;36.00
41926;DHT22;27615;51.826;5.692;2022-10-12T11:09:13;37.20;33.70
41926;DHT22;27615;51.826;5.692;2022-10-12T11:11:41;38.10;34.10
41926;DHT22;27615;51.826;5.692;2022-10-12T11:14:19;39.30;32.90
41926;DHT22;27615;51.826;5.692;2022-10-12T11:16:56;40.20;32.70
41926;DHT22;27615;51.826;5.692;2022-10-12T11:19:41;41.30;32.10
41926;DHT22;27615;51.826;5.692;2022-10-12T11:22:14;41.30;30.80
41926;DHT22;27615;51.826;5.692;2022-10-12T11:24:45;40.30;29.60
41926;DHT22;27615;51.826;5.692;2022-10-12T11:27:16;37.30;30.50
41926;DHT22;27615;51.826;5.692;2022-10-12T11:29:44;36.10;31.30
41926;DHT22;27615;51.826;5.692;2022-10-12T11:32:27;34.50;32.90
41926;DHT22;27615;51.826;5.692;2022-10-12T11:34:59;33.90;33.50
41926;DHT22;27615;51.826;5.692;2022-10-12T11:37:44;32.70;34.40
41926;DHT22;27615;51.826;5.692;2022-10-12T11:40:22;31.70;35.00
41926;DHT22;27615;51.826;5.692;2022-10-12T11:42:48;30.30;36.70
41926;DHT22;27615;51.826;5.692;2022-10-12T11:45:26;29.30;37.90
41926;DHT22;27615;51.826;5.692;2022-10-12T11:47:59;28.50;38.90
41926;DHT22;27615;51.826;5.692;2022-10-12T11:50:35;28.50;38.60
41926;DHT22;27615;51.826;5.692;2022-10-12T11:53:06;27.80;39.70
41926;DHT22;27615;51.826;5.692;2022-10-12T11:58:17;28.50;39.60
41926;DHT22;27615;51.826;5.692;2022-10-12T12:11:30;27.70;39.10
41926;DHT22;27615;51.826;5.692;2022-10-12T12:16:50;24.90;44.00
41926;DHT22;27615;51.826;5.692;2022-10-12T12:19:41;23.80;45.90
41926;DHT22;27615;51.826;5.692;2022-10-12T12:22:21;23.20;47.50
41926;DHT22;27615;51.826;5.692;2022-10-12T12:29:58;23.00;48.40
41926;DHT22;27615;51.826;5.692;2022-10-12T12:32:25;23.20;48.10
41926;DHT22;27615;51.826;5.692;2022-10-12T12:35:03;23.30;48.10
41926;DHT22;27615;51.826;5.692;2022-10-12T12:37:32;22.80;48.60
41926;DHT22;27615;51.826;5.692;2022-10-12T12:39:58;22.20;49.60
41926;DHT22;27615;51.826;5.692;2022-10-12T12:42:28;21.40;51.20
41926;DHT22;27615;51.826;5.692;2022-10-12T12:45:38;20.80;53.20
41926;DHT22;27615;51.826;5.692;2022-10-12T12:48:08;20.20;54.90
41926;DHT22;27615;51.826;5.692;2022-10-12T12:50:36;19.90;56.20
41926;DHT22;27615;51.826;5.692;2022-10-12T12:53:17;19.50;57.00
41926;DHT22;27615;51.826;5.692;2022-10-12T12:56:02;19.20;58.10
41926;DHT22;27615;51.826;5.692;2022-10-12T12:59:02;18.90;57.10
41926;DHT22;27615;51.826;5.692;2022-10-12T13:04:50;18.30;58.30
41926;DHT22;27615;51.826;5.692;2022-10-12T13:13:35;17.70;59.10
41926;DHT22;27615;51.826;5.692;2022-10-12T13:16:41;17.70;59.50
41926;DHT22;27615;51.826;5.692;2022-10-12T13:19:12;18.00;59.50
41926;DHT22;27615;51.826;5.692;2022-10-12T13:21:40;18.20;60.10
41926;DHT22;27615;51.826;5.692;2022-10-12T13:24:19;18.50;58.40
41926;DHT22;27615;51.826;5.692;2022-10-12T13:26:47;18.80;58.30
41926;DHT22;27615;51.826;5.692;2022-10-12T13:32:04;19.10;57.40
41926;DHT22;27615;51.826;5.692;2022-10-12T13:34:42;19.10;56.60
41926;DHT22;27615;51.826;5.692;2022-10-12T13:37:14;19.10;56.00
41926;DHT22;27615;51.826;5.692;2022-10-12T13:39:42;18.80;57.30
41926;DHT22;27615;51.826;5.692;2022-10-12T13:42:13;18.80;57.70
41926;DHT22;27615;51.826;5.692;2022-10-12T13:44:41;18.70;57.50
41926;DHT22;27615;51.826;5.692;2022-10-12T13:47:27;18.60;56.50
41926;DHT22;27615;51.826;5.692;2022-10-12T13:49:53;18.70;56.70
41926;DHT22;27615;51.826;5.692;2022-10-12T13:52:39;18.60;56.70
41926;DHT22;27615;51.826;5.692;2022-10-12T13:55:14;18.60;56.70
41926;DHT22;27615;51.826;5.692;2022-10-12T13:57:44;18.70;56.30
41926;DHT22;27615;51.826;5.692;2022-10-12T14:02:41;18.50;56.20
41926;DHT22;27615;51.826;5.692;2022-10-12T14:05:19;18.40;56.80
41926;DHT22;27615;51.826;5.692;2022-10-12T14:07:45;18.40;56.60
41926;DHT22;27615;51.826;5.692;2022-10-12T14:10:30;18.40;57.20
41926;DHT22;27615;51.826;5.692;2022-10-12T14:12:57;18.40;57.20
41926;DHT22;27615;51.826;5.692;2022-10-12T14:15:26;18.20;58.20
41926;DHT22;27615;51.826;5.692;2022-10-12T14:17:52;17.90;58.40
41926;DHT22;27615;51.826;5.692;2022-10-12T14:20:34;17.90;58.80
41926;DHT22;27615;51.826;5.692;2022-10-12T14:23:08;17.80;59.30
41926;DHT22;27615;51.826;5.692;2022-10-12T14:25:34;17.50;59.90
41926;DHT22;27615;51.826;5.692;2022-10-12T14:28:05;17.50;59.70
41926;DHT22;27615;51.826;5.692;2022-10-12T14:30:34;17.70;60.20
41926;DHT22;27615;51.826;5.692;2022-10-12T14:33:27;18.10;59.80
41926;DHT22;27615;51.826;5.692;2022-10-12T14:36:22;18.60;59.20
41926;DHT22;27615;51.826;5.692;2022-10-12T14:38:50;19.00;58.10
41926;DHT22;27615;51.826;5.692;2022-10-12T14:46:33;19.20;56.50
41926;DHT22;27615;51.826;5.692;2022-10-12T14:48:59;18.70;58.00
41926;DHT22;27615;51.826;5.692;2022-10-12T14:51:25;18.70;58.90
41926;DHT22;27615;51.826;5.692;2022-10-12T14:53:58;19.30;57.60
41926;DHT22;27615;51.826;5.692;2022-10-12T14:56:24;19.80;56.50
41926;DHT22;27615;51.826;5.692;2022-10-12T14:58:49;19.90;55.50
41926;DHT22;27615;51.826;5.692;2022-10-12T15:01:15;19.70;56.80
41926;DHT22;27615;51.826;5.692;2022-10-12T15:03:40;19.20;57.70
41926;DHT22;27615;51.826;5.692;2022-10-12T15:06:12;18.80;58.70
41926;DHT22;27615;51.826;5.692;2022-10-12T15:08:38;18.30;58.90
41926;DHT22;27615;51.826;5.692;2022-10-12T15:11:04;17.90;60.40
41926;DHT22;27615;51.826;5.692;2022-10-12T15:13:29;17.60;62.00
41926;DHT22;27615;51.826;5.692;2022-10-12T15:15:56;17.40;62.60
41926;DHT22;27615;51.826;5.692;2022-10-12T15:18:24;17.30;63.40
41926;DHT22;27615;51.826;5.692;2022-10-12T15:20:50;17.00;64.00
41926;DHT22;27615;51.826;5.692;2022-10-12T15:23:16;16.90;65.20
41926;DHT22;27615;51.826;5.692;2022-10-12T15:25:52;16.80;65.70
41926;DHT22;27615;51.826;5.692;2022-10-12T15:28:18;16.80;66.10
41926;DHT22;27615;51.826;5.692;2022-10-12T15:30:44;16.80;66.40
41926;DHT22;27615;51.826;5.692;2022-10-12T15:33:13;16.80;66.60
41926;DHT22;27615;51.826;5.692;2022-10-12T15:35:39;16.80;65.90
41926;DHT22;27615;51.826;5.692;2022-10-12T15:38:05;16.90;66.00
41926;DHT22;27615;51.826;5.692;2022-10-12T15:40:31;16.90;66.10
41926;DHT22;27615;51.826;5.692;2022-10-12T15:42:57;17.00;65.70
41926;DHT22;27615;51.826;5.692;2022-10-12T15:45:27;17.10;65.10
41926;DHT22;27615;51.826;5.692;2022-10-12T15:47:53;17.20;64.40
41926;DHT22;27615;51.826;5.692;2022-10-12T15:50:23;17.30;63.70
41926;DHT22;27615;51.826;5.692;2022-10-12T15:52:49;17.40;63.30
41926;DHT22;27615;51.826;5.692;2022-10-12T15:55:26;17.40;63.10
41926;DHT22;27615;51.826;5.692;2022-10-12T15:57:52;17.50;62.70
41926;DHT22;27615;51.826;5.692;2022-10-12T16:00:20;17.50;62.50
41926;DHT22;27615;51.826;5.692;2022-10-12T16:02:46;17.50;62.40
41926;DHT22;27615;51.826;5.692;2022-10-12T16:05:30;17.60;62.20
41926;DHT22;27615;51.826;5.692;2022-10-12T16:07:56;17.60;62.20
41926;DHT22;27615;51.826;5.692;2022-10-12T16:10:25;17.50;62.60
41926;DHT22;27615;51.826;5.692;2022-10-12T16:12:52;17.30;63.00
41926;DHT22;27615;51.826;5.692;2022-10-12T16:15:29;17.20;63.20
41926;DHT22;27615;51.826;5.692;2022-10-12T16:17:56;17.10;64.00
41926;DHT22;27615;51.826;5.692;2022-10-12T16:20:23;16.90;64.90
41926;DHT22;27615;51.826;5.692;2022-10-12T16:22:50;16.70;66.00
41926;DHT22;27615;51.826;5.692;2022-10-12T16:25:17;16.50;66.20
41926;DHT22;27615;51.826;5.692;2022-10-12T16:27:45;16.40;66.90
41926;DHT22;27615;51.826;5.692;2022-10-12T16:30:12;16.30;67.20
41926;DHT22;27615;51.826;5.692;2022-10-12T16:32:38;16.30;67.30
41926;DHT22;27615;51.826;5.692;2022-10-12T16:35:04;16.20;67.90
41926;DHT22;27615;51.826;5.692;2022-10-12T16:37:30;16.10;68.40
41926;DHT22;27615;51.826;5.692;2022-10-12T16:39:56;16.00;68.90
41926;DHT22;27615;51.826;5.692;2022-10-12T16:42:22;15.90;69.10
41926;DHT22;27615;51.826;5.692;2022-10-12T16:44:48;15.80;69.30
41926;DHT22;27615;51.826;5.692;2022-10-12T16:47:13;15.70;69.50
41926;DHT22;27615;51.826;5.692;2022-10-12T16:49:39;15.70;69.60
41926;DHT22;27615;51.826;5.692;2022-10-12T16:52:05;15.60;69.90
41926;DHT22;27615;51.826;5.692;2022-10-12T16:54:31;15.50;70.50
41926;DHT22;27615;51.826;5.692;2022-10-12T16:56:57;15.40;71.20
41926;DHT22;27615;51.826;5.692;2022-10-12T16:59:23;15.30;71.90
41926;DHT22;27615;51.826;5.692;2022-10-12T17:01:49;15.10;72.40
41926;DHT22;27615;51.826;5.692;2022-10-12T17:04:14;15.00;72.90
41926;DHT22;27615;51.826;5.692;2022-10-12T17:06:40;15.00;73.40
41926;DHT22;27615;51.826;5.692;2022-10-12T17:09:07;14.90;73.60
41926;DHT22;27615;51.826;5.692;2022-10-12T17:11:37;14.90;73.60
41926;DHT22;27615;51.826;5.692;2022-10-12T17:14:05;14.90;73.90